Latest Weather Observations for Lameroo AWS

IDS60801

Issued at 10:31 am CDT Sunday 11 December 2016 (issued every 30 minutes, with the page automatically refreshed every 10 minutes)

About weather observations | Map of weather stations | Latest weather observations for SA | Other Formats
Station Details ID: 025562 Name: AUSTIN PLAINS Lat: -35.38 Lon: 140.54 Height: 110.08 m
Data from the previous 72 hours. | See also: Recent months at Lameroo AWS
Date/Time
CDT
Temp
°C
App
Temp
°C
Dew
Point
°C
Rel
Hum
%
Delta-T
°C
Wind Press
QNH
hPa
Press
MSL
hPa
Rain since
9am
mm
Dir  Spd
km/h
Gust
km/h
Spd
kts
Gust
kts
11/10:30am 20.2 17.8 7.2 43 6.6 E 9 17 5 9 1023.5 1023.1 0.0
11/10:00am 19.4 16.7 7.5 46 6.1 ESE 11 17 6 9 1023.7 1023.3 0.0
11/09:30am 18.6 15.2 7.7 49 5.6 ESE 15 22 8 12 1023.7 1023.3 0.0
11/09:00am 17.5 13.3 8.1 54 4.8 E 20 28 11 15 1023.8 1023.4 0.0
11/08:30am 16.6 12.4 8.1 57 4.3 E 20 28 11 15 1023.9 1023.5 0.0
11/08:00am 14.5 9.1 8.2 66 3.2 E 26 32 14 17 1023.7 1023.3 0.0
11/07:30am 13.1 9.0 8.6 74 2.3 ESE 20 28 11 15 1023.5 1023.1 0.0
11/07:00am 11.2 8.5 8.8 85 1.2 SE 13 17 7 9 1023.5 1023.1 0.0
11/06:30am 9.1 6.8 7.5 90 0.8 SSE 9 9 5 5 1023.3 1022.9 0.0
11/06:00am 8.0 5.1 6.5 90 0.7 SSE 11 13 6 7 1022.8 1022.5 0.0
11/05:30am 8.3 5.1 6.8 90 0.7 SSE 13 15 7 8 1022.4 1022.1 0.0
11/05:00am 8.7 5.5 6.8 88 0.9 SSE 13 15 7 8 1022.0 1021.7 0.0
11/04:30am 8.9 5.7 7.0 88 0.9 SSE 13 15 7 8 1021.8 1021.5 0.0
11/04:00am 9.5 6.8 7.3 86 1.0 SE 11 13 6 7 1021.6 1021.3 0.0
11/03:30am 10.3 6.9 7.7 84 1.3 SE 15 17 8 9 1021.5 1021.2 0.0
11/03:00am 10.6 7.2 7.8 83 1.4 SE 15 17 8 9 1021.5 1021.2 0.0
11/02:30am 11.1 7.8 8.0 81 1.5 SE 15 19 8 10 1021.7 1021.4 0.0
11/02:00am 11.6 8.0 8.3 80 1.6 SSE 17 19 9 10 1021.9 1021.6 0.0
11/01:30am 12.0 8.8 8.3 78 1.8 SSE 15 19 8 10 1022.3 1022.0 0.0
11/01:00am 12.7 9.5 8.6 76 2.1 SSE 15 20 8 11 1022.3 1022.0 0.0
11/12:30am 13.2 9.6 8.5 73 2.3 SSE 17 20 9 11 1022.4 1022.1 0.0
11/12:00am 13.6 10.5 8.9 73 2.4 SSE 15 20 8 11 1022.5 1022.2 0.0
 
Date/Time
CDT
Temp
°C
App
Temp
°C
Dew
Point
°C
Rel
Hum
%
Delta-T
°C
Wind Press
QNH
hPa
Press
MSL
hPa
Rain since
9am
mm
Dir  Spd
km/h
Gust
km/h
Spd
kts
Gust
kts
10/11:30pm 13.5 10.4 8.8 73 2.4 S 15 19 8 10 1022.5 1022.2 0.0
10/11:00pm 14.3 10.8 8.7 69 2.8 S 17 19 9 10 1022.5 1022.2 0.0
10/10:30pm 15.2 11.7 8.9 66 3.2 S 17 22 9 12 1022.5 1022.2 0.0
10/10:00pm 15.8 12.3 8.8 63 3.6 SSW 17 24 9 13 1022.4 1022.1 0.0
10/09:30pm 16.6 13.1 8.8 60 4.0 SSW 17 22 9 12 1022.2 1021.9 0.0
10/09:00pm 17.8 14.3 8.6 55 4.8 SSW 17 24 9 13 1022.0 1021.7 0.0
10/08:30pm 18.9 14.8 8.6 51 5.4 SSW 20 28 11 15 1021.7 1021.4 0.0
10/08:00pm 20.5 15.9 8.2 45 6.4 SSW 22 30 12 16 1021.4 1021.1 0.0
10/07:30pm 21.9 16.4 7.7 40 7.4 SSW 26 37 14 20 1021.0 1020.7 0.0
10/07:00pm 24.0 18.9 3.3 26 10.1 SSW 19 26 10 14 1020.7 1020.4 0.0
10/06:30pm 24.9 20.0 4.1 26 10.3 SSW 19 28 10 15 1020.4 1020.1 0.0
10/06:00pm 25.1 20.1 3.7 25 10.6 S 19 30 10 16 1020.2 1019.9 0.0
10/05:30pm 25.4 20.4 3.4 24 10.8 SSW 19 28 10 15 1020.3 1020.0 0.0
10/05:00pm 25.3 21.4 3.3 24 10.8 SW 13 30 7 16 1020.4 1020.1 0.0
10/04:30pm 25.9 22.0 3.2 23 11.2 SW 13 28 7 15 1020.8 1020.5 0.0
10/04:00pm 26.4 22.4 3.0 22 11.5 SW 13 22 7 12 1020.9 1020.6 0.0
10/03:30pm 25.1 21.5 3.1 24 10.7 SSW 11 20 6 11 1021.1 1020.8 0.0
10/03:00pm 24.7 20.8 3.4 25 10.4 SSW 13 20 7 11 1021.6 1021.3 0.0
10/02:30pm 24.7 20.8 3.4 25 10.4 WSW 13 26 7 14 1021.9 1021.6 0.0
10/02:00pm 24.3 20.8 3.6 26 10.2 SSW 11 19 6 10 1022.2 1021.9 0.0
10/01:30pm 23.2 19.5 4.2 29 9.3 WSW 13 24 7 13 1022.6 1022.3 0.0
10/01:00pm 22.6 19.2 4.2 30 9.0 W 11 20 6 11 1023.0 1022.7 0.0
10/12:30pm 21.0 18.3 3.7 32 8.3 W 7 20 4 11 1023.3 1022.9 0.0
10/12:00pm 20.6 17.6 4.2 34 7.9 W 9 19 5 10 1023.8 1023.4 0.0
10/11:30am 19.9 17.6 4.8 37 7.3 SW 6 11 3 6 1024.0 1023.6 0.0
10/11:00am 18.8 16.0 5.3 41 6.6 NW 9 17 5 9 1024.0 1023.6 0.0
10/10:30am 17.6 15.4 5.2 44 6.0 NE 6 15 3 8 1024.2 1023.8 0.0
10/10:00am 16.9 14.6 5.5 47 5.5 N 7 13 4 7 1024.5 1024.1 0.0
10/09:30am 15.6 13.1 4.9 49 5.0 ESE 7 13 4 7 1024.9 1024.5 0.0
10/09:00am 15.1 12.1 5.9 54 4.4 E 11 20 6 11 1024.9 1024.5 0.0
10/08:30am 14.7 11.3 6.0 56 4.2 E 13 20 7 11 1024.8 1024.4 0.0
10/08:00am 13.2 9.4 5.6 60 3.6 ESE 15 19 8 10 1024.6 1024.2 0.0
10/07:30am 12.0 8.3 6.5 69 2.6 ESE 15 20 8 11 1024.5 1024.1 0.0
10/07:00am 9.6 6.3 6.3 80 1.5 SE 13 17 7 9 1024.2 1023.8 0.0
10/06:30am 7.5 4.5 5.8 89 0.8 SSE 11 13 6 7 1024.0 1023.6 0.0
10/06:00am 6.0 2.7 4.6 91 0.6 SSE 11 13 6 7 1023.7 1023.3 0.0
10/05:30am 6.0 2.7 4.6 91 0.6 SSE 11 13 6 7 1023.0 1022.7 0.0
10/05:00am 5.8 2.5 4.3 90 0.6 S 11 13 6 7 1022.8 1022.5 0.0
10/04:30am 6.1 2.4 4.4 89 0.7 S 13 13 7 7 1022.6 1022.3 0.0
10/04:00am 6.4 2.4 4.7 89 0.7 S 15 15 8 8 1022.6 1022.3 0.0
10/03:30am 6.4 2.7 4.6 88 0.8 S 13 13 7 7 1022.6 1022.3 0.0
10/03:00am 6.3 2.6 4.3 87 0.9 S 13 13 7 7 1022.6 1022.3 0.0
10/02:30am 6.8 3.1 4.6 86 1.0 S 13 13 7 7 1022.5 1022.2 0.0
10/02:00am 7.2 3.5 4.7 84 1.1 S 13 15 7 8 1022.6 1022.3 0.0
10/01:30am 7.7 4.1 4.8 82 1.3 S 13 15 7 8 1022.8 1022.5 0.0
10/01:00am 8.2 4.7 5.3 82 1.3 S 13 15 7 8 1023.0 1022.7 0.0
10/12:30am 8.0 4.4 5.1 82 1.3 SSW 13 13 7 7 1023.0 1022.7 0.0
10/12:00am 8.1 4.8 4.7 79 1.5 SSW 11 13 6 7 1023.1 1022.8 0.0
 
Date/Time
CDT
Temp
°C
App
Temp
°C
Dew
Point
°C
Rel
Hum
%
Delta-T
°C
Wind Press
QNH
hPa
Press
MSL
hPa
Rain since
9am
mm
Dir  Spd
km/h
Gust
km/h
Spd
kts
Gust
kts
09/11:30pm 9.7 6.2 5.5 75 1.9 SSW 13 17 7 9 1023.3 1022.9 0.0
09/11:00pm 10.7 6.9 5.7 71 2.3 SSW 15 17 8 9 1023.3 1022.9 0.0
09/10:30pm 11.9 8.1 5.8 66 2.8 SSW 15 19 8 10 1023.1 1022.8 0.0
09/10:00pm 12.7 8.9 5.8 63 3.3 SSW 15 20 8 11 1023.0 1022.7 0.0
09/09:30pm 13.4 9.2 5.8 60 3.6 SSW 17 22 9 12 1022.6 1022.3 0.0
09/09:00pm 13.8 10.0 5.9 59 3.8 SSW 15 20 8 11 1022.2 1021.9 0.0
09/08:30pm 15.1 10.6 6.1 55 4.3 SSW 19 24 10 13 1021.9 1021.6 0.0
09/08:00pm 16.3 11.2 5.9 50 5.1 SSW 22 32 12 17 1021.5 1021.2 0.0
09/07:30pm 17.6 12.0 5.5 45 5.9 SSW 24 33 13 18 1021.1 1020.8 0.0
09/07:00pm 18.9 12.9 5.4 41 6.6 SSW 26 35 14 19 1020.6 1020.3 0.0
09/06:30pm 19.7 14.0 5.0 38 7.2 SSW 24 33 13 18 1020.3 1020.0 0.0
09/06:00pm 19.9 13.4 4.8 37 7.3 SSW 28 35 15 19 1020.1 1019.8 0.0
09/05:30pm 21.3 15.1 4.4 33 8.2 SSW 26 41 14 22 1020.0 1019.7 0.0
09/05:00pm 21.9 16.0 4.0 31 8.7 SW 24 37 13 20 1019.9 1019.6 0.0
09/04:30pm 21.3 15.2 3.0 30 8.7 SW 24 39 13 21 1019.9 1019.6 0.0
09/04:00pm 20.9 15.8 3.2 31 8.4 SW 19 30 10 16 1019.9 1019.6 0.0
09/03:30pm 20.9 15.8 3.2 31 8.4 S 19 32 10 17 1020.2 1019.9 0.0
09/03:00pm 20.5 15.2 2.8 31 8.3 SSW 20 30 11 16 1020.4 1020.1 0.0
09/02:30pm 21.3 16.2 3.0 30 8.7 SSW 19 35 10 19 1020.4 1020.1 0.0
09/02:00pm 20.8 15.6 3.5 32 8.3 S 20 37 11 20 1020.5 1020.2 0.0
09/01:30pm 20.1 14.5 3.3 33 7.9 SSW 22 32 12 17 1020.8 1020.5 0.0
09/01:00pm 18.9 13.5 2.7 34 7.5 S 20 39 11 21 1021.1 1020.8 0.0
09/12:30pm 18.5 12.3 2.4 34 7.4 S 24 33 13 18 1021.2 1020.9 0.0
09/12:00pm 19.0 14.1 4.0 37 7.1 SSW 19 32 10 17 1021.3 1021.0 0.0
09/11:30am 16.9 10.9 3.6 41 6.2 SSW 24 35 13 19 1021.5 1021.2 0.0
09/11:00am 17.1 11.1 3.1 39 6.5 SSW 24 35 13 19 1021.4 1021.1 0.0
09/10:30am 16.0 10.5 4.1 45 5.5 SSW 22 33 12 18 1021.3 1021.0 0.0
09/10:00am 15.8 10.7 3.9 45 5.5 SSW 20 32 11 17 1021.2 1020.9 0.0
09/09:30am 15.2 9.1 3.0 44 5.5 SSW 24 33 13 18 1021.2 1020.9 0.0
09/09:00am 13.9 9.2 5.0 55 4.2 SSW 19 28 10 15 1021.0 1020.7 0.2
09/08:30am 13.3 8.3 6.6 64 3.2 SSW 22 28 12 15 1020.7 1020.4 0.2
09/08:00am 13.0 9.1 7.2 68 2.8 SSW 17 24 9 13 1020.1 1019.8 0.2
09/07:30am 11.6 8.5 7.1 74 2.2 SW 13 19 7 10 1019.8 1019.5 0.2
09/07:00am 10.9 8.1 6.8 76 2.0 SW 11 15 6 8 1019.3 1019.0 0.2
09/06:30am 10.1 7.7 6.8 80 1.6 SW 9 11 5 6 1018.8 1018.5 0.2
09/06:00am 9.8 7.3 6.7 81 1.5 SW 9 11 5 6 1018.3 1017.9 0.2
09/05:30am 9.9 7.1 6.8 81 1.5 SW 11 15 6 8 1017.8 1017.4 0.2
09/05:00am 9.2 6.6 6.3 82 1.3 WSW 9 13 5 7 1017.4 1017.0 0.2
09/04:30am 8.6 6.4 6.2 85 1.1 W 7 9 4 5 1017.1 1016.7 0.2
09/04:00am 7.3 4.4 4.8 84 1.1 W 9 11 5 6 1016.7 1016.3 0.2
09/03:30am 8.3 6.1 6.1 86 1.0 WNW 7 9 4 5 1016.2 1015.8 0.2
09/03:00am 7.7 5.5 5.5 86 1.0 WNW 6 7 3 4 1015.9 1015.5 0.2
09/02:30am 7.2 4.3 4.7 84 1.1 WSW 9 9 5 5 1015.7 1015.3 0.2
09/02:00am 7.5 3.9 4.8 83 1.2 SW 13 15 7 8 1015.4 1015.0 0.2
09/01:30am 8.4 4.9 5.3 81 1.4 SW 13 17 7 9 1015.5 1015.1 0.2
09/01:00am 9.4 5.2 5.8 78 1.7 SW 17 24 9 13 1015.6 1015.2 0.2
09/12:30am 9.4 5.8 6.8 84 1.2 SW 15 19 8 10 1015.7 1015.3 0.2
09/12:00am 9.8 6.7 7.4 85 1.1 SW 13 15 7 8 1015.9 1015.5 0.2
 
Date/Time
CDT
Temp
°C
App
Temp
°C
Dew
Point
°C
Rel
Hum
%
Delta-T
°C
Wind Press
QNH
hPa
Press
MSL
hPa
Rain since
9am
mm
Dir  Spd
km/h
Gust
km/h
Spd
kts
Gust
kts
08/11:30pm 10.4 6.6 7.6 83 1.3 SW 17 24 9 13 1015.6 1015.2 0.2
08/11:00pm 10.9 6.8 8.5 85 1.2 SW 20 26 11 14 1015.5 1015.1 0.2
08/10:30pm 11.1 7.0 8.7 85 1.2 SW 20 28 11 15 1015.1 1014.7 0.2
08/10:00pm 11.2 6.3 8.4 83 1.4 SW 24 35 13 19 1014.8 1014.4 0.2
08/09:30pm 11.2 7.5 9.3 88 1.0 SW 19 24 10 13 1014.2 1013.8 0.2
08/09:00pm 11.8 6.8 9.4 85 1.2 SW 26 33 14 18 1013.6 1013.3 0.2
08/08:34pm 12.6 7.1 9.1 79 1.8 SW 28 52 15 28 1013.0 1012.7 0.0
08/08:30pm 12.5 7.3 9.0 79 1.8 SW 26 37 14 20 1013.0 1012.7 0.0
08/08:00pm 12.8 7.5 8.3 74 2.2 WSW 26 37 14 20 1012.1 1011.8 0.0
08/07:30pm 13.2 8.2 9.5 78 1.9 WSW 26 37 14 20 1011.6 1011.3 0.0
08/07:00pm 12.2 5.8 9.2 82 1.5 SW 33 48 18 26 1011.2 1010.9 0.0
08/06:47pm 14.4 5.6 7.9 65 3.2 SW 44 72 24 39 1010.7 1010.3 0.0
08/06:30pm 16.0 7.4 6.4 53 4.7 SW 41 52 22 28 1010.3 1009.9 0.0
08/06:00pm 17.0 6.6 4.0 42 6.1 SW 48 65 26 35 1009.5 1009.1 0.0
08/05:30pm 19.4 10.3 6.8 44 6.4 SW 44 63 24 34 1008.7 1008.3 0.0
08/05:04pm 19.3 9.7 4.6 38 7.1 SW 44 65 24 35 1008.4 1008.0 0.0
08/05:00pm 18.9 8.9 4.3 38 7.0 SW 46 65 25 35 1008.1 1007.7 0.0
08/04:30pm 19.1 7.8 5.2 40 6.8 WSW 54 69 29 37 1007.9 1007.5 0.0
08/04:03pm 19.4 9.9 6.5 43 6.5 SW 46 69 25 37 1007.4 1007.0 0.0
08/04:00pm 19.4 10.5 7.8 47 6.0 SW 44 57 24 31 1007.4 1007.0 0.0
08/03:39pm 19.3 9.2 5.7 41 6.7 SW 48 69 26 37 1007.1 1006.7 0.0
08/03:30pm 20.0 9.1 5.6 39 7.2 WSW 52 63 28 34 1007.3 1006.9 0.0
08/03:06pm 19.7 11.1 8.7 49 5.8 SW 44 63 24 34 1007.3 1006.9 0.0
08/03:00pm 18.7 8.9 6.9 46 6.0 SW 48 63 26 34 1007.3 1006.9 0.0
08/02:30pm 20.9 8.9 4.5 34 8.0 WSW 57 80 31 43 1006.9 1006.5 0.0
08/02:00pm 19.2 7.4 4.9 39 7.0 WSW 56 80 30 43 1006.7 1006.3 0.0
08/01:32pm 19.6 8.2 6.7 43 6.5 WSW 56 74 30 40 1006.8 1006.4 0.0
08/01:30pm 18.9 7.0 5.4 41 6.6 WSW 57 74 31 40 1006.8 1006.4 0.0
08/01:05pm 18.4 7.9 5.6 43 6.3 WSW 50 82 27 44 1006.5 1006.1 0.0
08/01:04pm 19.4 9.0 6.2 42 6.6 WSW 50 69 27 37 1006.5 1006.1 0.0
08/01:00pm 19.9 9.7 7.0 43 6.6 WSW 50 67 27 36 1006.7 1006.3 0.0
08/12:33pm 19.5 9.6 6.6 43 6.5 WSW 48 67 26 36 1006.5 1006.1 0.0
08/12:30pm 19.7 9.7 6.1 41 6.8 WSW 48 63 26 34 1006.4 1006.0 0.0
08/12:07pm 18.1 7.9 6.9 48 5.6 WSW 50 72 27 39 1006.1 1005.7 0.0
08/12:00pm 19.0 8.0 5.1 40 6.8 WSW 52 69 28 37 1006.0 1005.6 0.0
08/11:37am 18.8 10.2 6.6 45 6.1 WSW 41 63 22 34 1006.0 1005.6 0.0
08/11:30am 20.0 11.2 7.1 43 6.6 WSW 43 59 23 32 1006.2 1005.8 0.0
08/11:18am 18.8 10.9 7.9 49 5.6 WSW 39 57 21 31 1006.0 1005.6 0.0
08/11:00am 18.2 8.4 7.0 48 5.6 WSW 48 65 26 35 1005.8 1005.4 0.0

Other Formats:

Comma delimited format used in spreadsheet applications
http://www.bom.gov.au/fwo/IDS60801/IDS60801.94690.axf

JavaScript Object Notation format (JSON) in row-major order
http://www.bom.gov.au/fwo/IDS60801/IDS60801.94690.json